sensor_id;sensor_type;location;lat;lon;timestamp;P1;durP1;ratioP1;P2;durP2;ratioP2
28848;SDS011;15981;43.292;-2.888;2022-07-23T00:01:30;3.40;;;2.22;;
28848;SDS011;15981;43.292;-2.888;2022-07-23T00:03:56;3.10;;;2.30;;
28848;SDS011;15981;43.292;-2.888;2022-07-23T00:06:22;2.35;;;2.15;;
28848;SDS011;15981;43.292;-2.888;2022-07-23T00:08:48;3.13;;;2.38;;
28848;SDS011;15981;43.292;-2.888;2022-07-23T00:11:14;3.17;;;2.60;;
28848;SDS011;15981;43.292;-2.888;2022-07-23T00:13:40;2.50;;;2.28;;
28848;SDS011;15981;43.292;-2.888;2022-07-23T00:16:05;2.88;;;1.95;;
28848;SDS011;15981;43.292;-2.888;2022-07-23T00:18:31;2.72;;;2.15;;
28848;SDS011;15981;43.292;-2.888;2022-07-23T00:20:57;3.00;;;2.30;;
28848;SDS011;15981;43.292;-2.888;2022-07-23T00:23:23;3.05;;;2.13;;
28848;SDS011;15981;43.292;-2.888;2022-07-23T00:25:51;2.70;;;2.15;;
28848;SDS011;15981;43.292;-2.888;2022-07-23T00:28:17;2.50;;;2.30;;
28848;SDS011;15981;43.292;-2.888;2022-07-23T00:30:44;4.10;;;2.47;;
28848;SDS011;15981;43.292;-2.888;2022-07-23T00:33:10;3.08;;;2.58;;
28848;SDS011;15981;43.292;-2.888;2022-07-23T00:35:37;3.05;;;2.22;;
28848;SDS011;15981;43.292;-2.888;2022-07-23T00:38:03;3.13;;;2.65;;
28848;SDS011;15981;43.292;-2.888;2022-07-23T00:40:30;3.22;;;2.53;;
28848;SDS011;15981;43.292;-2.888;2022-07-23T00:42:56;4.28;;;2.15;;
28848;SDS011;15981;43.292;-2.888;2022-07-23T00:45:22;4.45;;;2.50;;
28848;SDS011;15981;43.292;-2.888;2022-07-23T00:47:48;4.00;;;2.65;;
28848;SDS011;15981;43.292;-2.888;2022-07-23T00:50:14;2.85;;;2.42;;
28848;SDS011;15981;43.292;-2.888;2022-07-23T00:52:40;4.05;;;2.55;;
28848;SDS011;15981;43.292;-2.888;2022-07-23T00:55:06;3.25;;;2.40;;
28848;SDS011;15981;43.292;-2.888;2022-07-23T00:57:33;3.67;;;2.80;;
28848;SDS011;15981;43.292;-2.888;2022-07-23T00:59:59;3.42;;;2.40;;
28848;SDS011;15981;43.292;-2.888;2022-07-23T01:02:25;3.45;;;2.47;;
28848;SDS011;15981;43.292;-2.888;2022-07-23T01:04:51;3.85;;;2.13;;
28848;SDS011;15981;43.292;-2.888;2022-07-23T01:07:17;3.40;;;2.38;;
28848;SDS011;15981;43.292;-2.888;2022-07-23T01:09:44;2.78;;;2.17;;
28848;SDS011;15981;43.292;-2.888;2022-07-23T01:12:10;5.75;;;2.95;;
28848;SDS011;15981;43.292;-2.888;2022-07-23T01:14:36;3.03;;;2.38;;
28848;SDS011;15981;43.292;-2.888;2022-07-23T01:17:01;3.83;;;2.80;;
28848;SDS011;15981;43.292;-2.888;2022-07-23T01:19:27;2.80;;;2.50;;
28848;SDS011;15981;43.292;-2.888;2022-07-23T01:21:53;3.00;;;2.20;;
28848;SDS011;15981;43.292;-2.888;2022-07-23T01:24:19;3.20;;;2.40;;
28848;SDS011;15981;43.292;-2.888;2022-07-23T01:26:45;3.40;;;2.30;;
28848;SDS011;15981;43.292;-2.888;2022-07-23T01:29:11;3.63;;;2.70;;
28848;SDS011;15981;43.292;-2.888;2022-07-23T01:31:37;4.78;;;2.67;;
28848;SDS011;15981;43.292;-2.888;2022-07-23T01:34:03;4.28;;;2.50;;
28848;SDS011;15981;43.292;-2.888;2022-07-23T01:36:29;4.70;;;2.90;;
28848;SDS011;15981;43.292;-2.888;2022-07-23T01:38:55;4.47;;;2.75;;
28848;SDS011;15981;43.292;-2.888;2022-07-23T01:41:21;3.30;;;2.75;;
28848;SDS011;15981;43.292;-2.888;2022-07-23T01:43:47;3.80;;;2.80;;
28848;SDS011;15981;43.292;-2.888;2022-07-23T01:46:12;6.80;;;2.90;;
28848;SDS011;15981;43.292;-2.888;2022-07-23T01:48:38;3.15;;;2.50;;
28848;SDS011;15981;43.292;-2.888;2022-07-23T01:51:04;3.38;;;2.47;;
28848;SDS011;15981;43.292;-2.888;2022-07-23T01:53:30;3.55;;;2.60;;
28848;SDS011;15981;43.292;-2.888;2022-07-23T01:55:57;2.92;;;2.40;;
28848;SDS011;15981;43.292;-2.888;2022-07-23T01:58:23;3.22;;;2.40;;
28848;SDS011;15981;43.292;-2.888;2022-07-23T02:00:48;4.45;;;2.85;;
28848;SDS011;15981;43.292;-2.888;2022-07-23T02:03:14;5.47;;;2.35;;
28848;SDS011;15981;43.292;-2.888;2022-07-23T02:05:40;3.10;;;2.75;;
28848;SDS011;15981;43.292;-2.888;2022-07-23T02:08:05;2.92;;;2.40;;
28848;SDS011;15981;43.292;-2.888;2022-07-23T02:10:31;5.68;;;2.53;;
28848;SDS011;15981;43.292;-2.888;2022-07-23T02:12:57;5.30;;;2.72;;
28848;SDS011;15981;43.292;-2.888;2022-07-23T02:15:22;3.60;;;2.28;;
28848;SDS011;15981;43.292;-2.888;2022-07-23T02:17:48;4.53;;;2.72;;
28848;SDS011;15981;43.292;-2.888;2022-07-23T02:20:14;3.35;;;2.40;;
28848;SDS011;15981;43.292;-2.888;2022-07-23T02:22:40;5.88;;;2.80;;
28848;SDS011;15981;43.292;-2.888;2022-07-23T02:25:06;3.17;;;2.85;;
28848;SDS011;15981;43.292;-2.888;2022-07-23T02:27:33;3.00;;;2.70;;
28848;SDS011;15981;43.292;-2.888;2022-07-23T02:29:58;3.10;;;2.78;;
28848;SDS011;15981;43.292;-2.888;2022-07-23T02:32:24;3.88;;;3.17;;
28848;SDS011;15981;43.292;-2.888;2022-07-23T02:34:50;4.20;;;3.35;;
28848;SDS011;15981;43.292;-2.888;2022-07-23T02:37:16;4.45;;;3.20;;
28848;SDS011;15981;43.292;-2.888;2022-07-23T02:39:42;5.15;;;3.40;;
28848;SDS011;15981;43.292;-2.888;2022-07-23T02:42:07;4.40;;;3.22;;
28848;SDS011;15981;43.292;-2.888;2022-07-23T02:44:33;6.15;;;2.90;;
28848;SDS011;15981;43.292;-2.888;2022-07-23T02:46:59;3.53;;;2.63;;
28848;SDS011;15981;43.292;-2.888;2022-07-23T02:49:25;4.68;;;2.65;;
28848;SDS011;15981;43.292;-2.888;2022-07-23T02:51:50;4.32;;;2.85;;
28848;SDS011;15981;43.292;-2.888;2022-07-23T02:54:16;3.38;;;2.70;;
28848;SDS011;15981;43.292;-2.888;2022-07-23T02:56:42;5.07;;;2.83;;
28848;SDS011;15981;43.292;-2.888;2022-07-23T02:59:08;3.58;;;2.88;;
28848;SDS011;15981;43.292;-2.888;2022-07-23T03:01:34;4.00;;;3.15;;
28848;SDS011;15981;43.292;-2.888;2022-07-23T03:03:59;5.65;;;3.22;;
28848;SDS011;15981;43.292;-2.888;2022-07-23T03:06:25;3.50;;;2.92;;
28848;SDS011;15981;43.292;-2.888;2022-07-23T03:08:51;4.57;;;3.22;;
28848;SDS011;15981;43.292;-2.888;2022-07-23T03:11:17;4.63;;;3.00;;
28848;SDS011;15981;43.292;-2.888;2022-07-23T03:13:42;4.65;;;3.08;;
28848;SDS011;15981;43.292;-2.888;2022-07-23T03:16:08;4.20;;;2.83;;
28848;SDS011;15981;43.292;-2.888;2022-07-23T03:18:34;4.80;;;2.83;;
28848;SDS011;15981;43.292;-2.888;2022-07-23T03:21:00;3.50;;;2.83;;
28848;SDS011;15981;43.292;-2.888;2022-07-23T03:23:25;3.90;;;2.67;;
28848;SDS011;15981;43.292;-2.888;2022-07-23T03:25:51;3.90;;;2.67;;
28848;SDS011;15981;43.292;-2.888;2022-07-23T03:28:18;2.90;;;2.60;;
28848;SDS011;15981;43.292;-2.888;2022-07-23T03:30:44;3.00;;;2.67;;
28848;SDS011;15981;43.292;-2.888;2022-07-23T03:33:15;3.47;;;2.58;;
28848;SDS011;15981;43.292;-2.888;2022-07-23T03:35:42;3.28;;;2.80;;
28848;SDS011;15981;43.292;-2.888;2022-07-23T03:38:08;4.40;;;2.90;;
28848;SDS011;15981;43.292;-2.888;2022-07-23T03:40:34;5.40;;;3.15;;
28848;SDS011;15981;43.292;-2.888;2022-07-23T03:42:59;5.95;;;2.83;;
28848;SDS011;15981;43.292;-2.888;2022-07-23T03:45:25;4.28;;;3.22;;
28848;SDS011;15981;43.292;-2.888;2022-07-23T03:47:51;5.22;;;3.30;;
28848;SDS011;15981;43.292;-2.888;2022-07-23T03:50:17;3.22;;;2.60;;
28848;SDS011;15981;43.292;-2.888;2022-07-23T03:52:42;4.07;;;3.13;;
28848;SDS011;15981;43.292;-2.888;2022-07-23T03:55:08;3.50;;;3.08;;
28848;SDS011;15981;43.292;-2.888;2022-07-23T03:57:34;3.92;;;3.10;;
28848;SDS011;15981;43.292;-2.888;2022-07-23T04:00:00;6.43;;;3.35;;
28848;SDS011;15981;43.292;-2.888;2022-07-23T04:02:26;4.25;;;2.53;;
28848;SDS011;15981;43.292;-2.888;2022-07-23T04:04:52;3.70;;;2.60;;
28848;SDS011;15981;43.292;-2.888;2022-07-23T04:07:17;4.55;;;3.13;;
28848;SDS011;15981;43.292;-2.888;2022-07-23T04:09:43;5.35;;;3.42;;
28848;SDS011;15981;43.292;-2.888;2022-07-23T04:12:09;3.90;;;3.10;;
28848;SDS011;15981;43.292;-2.888;2022-07-23T04:14:35;4.90;;;3.50;;
28848;SDS011;15981;43.292;-2.888;2022-07-23T04:17:01;4.32;;;3.50;;
28848;SDS011;15981;43.292;-2.888;2022-07-23T04:19:26;5.32;;;2.88;;
28848;SDS011;15981;43.292;-2.888;2022-07-23T04:21:52;5.78;;;3.30;;
28848;SDS011;15981;43.292;-2.888;2022-07-23T04:24:18;4.15;;;2.85;;
28848;SDS011;15981;43.292;-2.888;2022-07-23T04:26:44;3.90;;;3.03;;
28848;SDS011;15981;43.292;-2.888;2022-07-23T04:29:10;4.78;;;2.78;;
28848;SDS011;15981;43.292;-2.888;2022-07-23T04:31:35;3.88;;;3.30;;
28848;SDS011;15981;43.292;-2.888;2022-07-23T04:34:01;4.10;;;2.58;;
28848;SDS011;15981;43.292;-2.888;2022-07-23T04:36:27;3.42;;;2.47;;
28848;SDS011;15981;43.292;-2.888;2022-07-23T04:38:53;6.30;;;2.90;;
28848;SDS011;15981;43.292;-2.888;2022-07-23T04:41:19;4.15;;;2.47;;
28848;SDS011;15981;43.292;-2.888;2022-07-23T04:43:45;6.55;;;3.10;;
28848;SDS011;15981;43.292;-2.888;2022-07-23T04:46:11;4.53;;;3.13;;
28848;SDS011;15981;43.292;-2.888;2022-07-23T04:48:37;4.72;;;3.10;;
28848;SDS011;15981;43.292;-2.888;2022-07-23T04:51:02;3.70;;;2.80;;
28848;SDS011;15981;43.292;-2.888;2022-07-23T04:53:28;3.67;;;3.00;;
28848;SDS011;15981;43.292;-2.888;2022-07-23T04:55:54;4.25;;;2.95;;
28848;SDS011;15981;43.292;-2.888;2022-07-23T04:58:20;3.10;;;2.63;;
28848;SDS011;15981;43.292;-2.888;2022-07-23T05:00:45;4.45;;;2.72;;
28848;SDS011;15981;43.292;-2.888;2022-07-23T05:03:11;3.05;;;2.75;;
28848;SDS011;15981;43.292;-2.888;2022-07-23T05:05:37;5.38;;;3.42;;
28848;SDS011;15981;43.292;-2.888;2022-07-23T05:08:03;3.80;;;2.60;;
28848;SDS011;15981;43.292;-2.888;2022-07-23T05:10:29;3.80;;;2.85;;
28848;SDS011;15981;43.292;-2.888;2022-07-23T05:12:55;3.33;;;3.03;;
28848;SDS011;15981;43.292;-2.888;2022-07-23T05:15:21;4.10;;;2.50;;
28848;SDS011;15981;43.292;-2.888;2022-07-23T05:17:46;4.53;;;2.72;;
28848;SDS011;15981;43.292;-2.888;2022-07-23T05:20:12;4.05;;;2.47;;
28848;SDS011;15981;43.292;-2.888;2022-07-23T05:22:38;4.25;;;2.90;;
28848;SDS011;15981;43.292;-2.888;2022-07-23T05:25:05;4.15;;;2.92;;
28848;SDS011;15981;43.292;-2.888;2022-07-23T05:27:30;4.13;;;3.05;;
28848;SDS011;15981;43.292;-2.888;2022-07-23T05:29:56;5.03;;;3.00;;
28848;SDS011;15981;43.292;-2.888;2022-07-23T05:32:22;3.83;;;2.95;;
28848;SDS011;15981;43.292;-2.888;2022-07-23T05:34:48;4.97;;;2.90;;
28848;SDS011;15981;43.292;-2.888;2022-07-23T05:37:13;4.07;;;3.00;;
28848;SDS011;15981;43.292;-2.888;2022-07-23T05:39:39;4.88;;;2.95;;
28848;SDS011;15981;43.292;-2.888;2022-07-23T05:42:05;6.10;;;4.75;;
28848;SDS011;15981;43.292;-2.888;2022-07-23T05:44:31;5.57;;;4.35;;
28848;SDS011;15981;43.292;-2.888;2022-07-23T05:46:56;4.22;;;3.45;;
28848;SDS011;15981;43.292;-2.888;2022-07-23T05:49:22;3.78;;;2.88;;
28848;SDS011;15981;43.292;-2.888;2022-07-23T05:51:48;6.00;;;3.20;;
28848;SDS011;15981;43.292;-2.888;2022-07-23T05:54:13;4.30;;;3.35;;
28848;SDS011;15981;43.292;-2.888;2022-07-23T05:56:39;4.45;;;3.28;;
28848;SDS011;15981;43.292;-2.888;2022-07-23T05:59:05;5.45;;;3.10;;
28848;SDS011;15981;43.292;-2.888;2022-07-23T06:01:31;5.88;;;2.95;;
28848;SDS011;15981;43.292;-2.888;2022-07-23T06:03:57;13.05;;;6.45;;
28848;SDS011;15981;43.292;-2.888;2022-07-23T07:55:31;8.23;;;4.82;;
28848;SDS011;15981;43.292;-2.888;2022-07-23T07:57:57;10.45;;;5.35;;
28848;SDS011;15981;43.292;-2.888;2022-07-23T08:00:23;7.22;;;5.32;;
28848;SDS011;15981;43.292;-2.888;2022-07-23T08:05:14;9.60;;;5.43;;
28848;SDS011;15981;43.292;-2.888;2022-07-23T08:07:40;7.38;;;5.63;;
28848;SDS011;15981;43.292;-2.888;2022-07-23T08:10:07;9.55;;;6.15;;
28848;SDS011;15981;43.292;-2.888;2022-07-23T08:15:05;7.03;;;5.00;;
28848;SDS011;15981;43.292;-2.888;2022-07-23T08:17:31;7.70;;;6.28;;
28848;SDS011;15981;43.292;-2.888;2022-07-23T08:19:57;9.05;;;5.47;;
28848;SDS011;15981;43.292;-2.888;2022-07-23T08:22:23;8.75;;;5.93;;
28848;SDS011;15981;43.292;-2.888;2022-07-23T08:24:48;8.18;;;5.72;;
28848;SDS011;15981;43.292;-2.888;2022-07-23T08:27:14;7.70;;;5.63;;
28848;SDS011;15981;43.292;-2.888;2022-07-23T08:29:41;10.45;;;5.68;;
28848;SDS011;15981;43.292;-2.888;2022-07-23T08:32:07;7.00;;;5.07;;
28848;SDS011;15981;43.292;-2.888;2022-07-23T08:34:33;7.32;;;5.60;;
28848;SDS011;15981;43.292;-2.888;2022-07-23T08:36:58;7.88;;;5.45;;
28848;SDS011;15981;43.292;-2.888;2022-07-23T08:39:24;9.55;;;5.00;;
28848;SDS011;15981;43.292;-2.888;2022-07-23T08:41:50;7.38;;;4.72;;
28848;SDS011;15981;43.292;-2.888;2022-07-23T08:44:16;7.60;;;5.43;;
28848;SDS011;15981;43.292;-2.888;2022-07-23T08:46:42;10.20;;;6.00;;
28848;SDS011;15981;43.292;-2.888;2022-07-23T08:49:09;7.57;;;4.93;;
28848;SDS011;15981;43.292;-2.888;2022-07-23T08:51:35;7.20;;;4.97;;
28848;SDS011;15981;43.292;-2.888;2022-07-23T08:54:01;6.28;;;3.90;;
28848;SDS011;15981;43.292;-2.888;2022-07-23T08:56:27;5.40;;;4.22;;
28848;SDS011;15981;43.292;-2.888;2022-07-23T08:58:53;6.88;;;4.18;;
28848;SDS011;15981;43.292;-2.888;2022-07-23T09:01:19;9.07;;;4.00;;
28848;SDS011;15981;43.292;-2.888;2022-07-23T09:03:45;5.78;;;3.58;;
28848;SDS011;15981;43.292;-2.888;2022-07-23T09:06:10;5.35;;;3.70;;
28848;SDS011;15981;43.292;-2.888;2022-07-23T09:08:37;4.75;;;3.10;;
28848;SDS011;15981;43.292;-2.888;2022-07-23T09:11:04;4.53;;;2.50;;
28848;SDS011;15981;43.292;-2.888;2022-07-23T09:16:00;4.07;;;2.47;;
28848;SDS011;15981;43.292;-2.888;2022-07-23T09:18:30;2.53;;;2.08;;
28848;SDS011;15981;43.292;-2.888;2022-07-23T09:26:24;9.82;;;2.90;;
28848;SDS011;15981;43.292;-2.888;2022-07-23T09:28:53;4.90;;;2.80;;
28848;SDS011;15981;43.292;-2.888;2022-07-23T09:31:20;3.92;;;2.50;;
28848;SDS011;15981;43.292;-2.888;2022-07-23T09:33:45;3.63;;;2.38;;
28848;SDS011;15981;43.292;-2.888;2022-07-23T09:36:11;5.43;;;2.95;;
28848;SDS011;15981;43.292;-2.888;2022-07-23T09:38:47;4.65;;;3.03;;
28848;SDS011;15981;43.292;-2.888;2022-07-23T09:41:13;7.15;;;3.00;;
28848;SDS011;15981;43.292;-2.888;2022-07-23T09:43:39;6.63;;;3.08;;
28848;SDS011;15981;43.292;-2.888;2022-07-23T09:46:21;4.28;;;2.60;;
28848;SDS011;15981;43.292;-2.888;2022-07-23T09:48:48;3.03;;;2.40;;
28848;SDS011;15981;43.292;-2.888;2022-07-23T09:51:13;3.97;;;2.20;;
28848;SDS011;15981;43.292;-2.888;2022-07-23T09:53:57;4.50;;;2.45;;
28848;SDS011;15981;43.292;-2.888;2022-07-23T09:56:23;4.47;;;2.42;;
28848;SDS011;15981;43.292;-2.888;2022-07-23T09:58:49;5.93;;;2.28;;
28848;SDS011;15981;43.292;-2.888;2022-07-23T10:01:17;2.10;;;1.90;;
28848;SDS011;15981;43.292;-2.888;2022-07-23T10:03:44;3.90;;;2.40;;
28848;SDS011;15981;43.292;-2.888;2022-07-23T10:06:10;7.05;;;3.78;;
28848;SDS011;15981;43.292;-2.888;2022-07-23T10:08:39;4.63;;;2.63;;
28848;SDS011;15981;43.292;-2.888;2022-07-23T10:11:05;3.13;;;2.42;;
28848;SDS011;15981;43.292;-2.888;2022-07-23T10:13:31;5.63;;;2.80;;
28848;SDS011;15981;43.292;-2.888;2022-07-23T10:16:16;3.63;;;2.20;;
28848;SDS011;15981;43.292;-2.888;2022-07-23T10:18:42;2.80;;;1.90;;
28848;SDS011;15981;43.292;-2.888;2022-07-23T10:21:08;3.83;;;2.50;;
28848;SDS011;15981;43.292;-2.888;2022-07-23T10:23:42;2.20;;;2.00;;
28848;SDS011;15981;43.292;-2.888;2022-07-23T10:31:29;3.75;;;2.35;;
28848;SDS011;15981;43.292;-2.888;2022-07-23T10:39:24;2.63;;;2.42;;
28848;SDS011;15981;43.292;-2.888;2022-07-23T10:41:51;2.78;;;1.77;;
28848;SDS011;15981;43.292;-2.888;2022-07-23T10:44:18;4.25;;;2.30;;
28848;SDS011;15981;43.292;-2.888;2022-07-23T10:47:03;5.50;;;2.00;;
28848;SDS011;15981;43.292;-2.888;2022-07-23T10:49:47;4.28;;;2.38;;
28848;SDS011;15981;43.292;-2.888;2022-07-23T10:57:28;2.60;;;1.77;;
28848;SDS011;15981;43.292;-2.888;2022-07-23T11:02:29;2.53;;;2.00;;
28848;SDS011;15981;43.292;-2.888;2022-07-23T11:04:58;2.38;;;2.00;;
28848;SDS011;15981;43.292;-2.888;2022-07-23T11:07:24;5.68;;;3.42;;
28848;SDS011;15981;43.292;-2.888;2022-07-23T11:09:50;4.47;;;3.03;;
28848;SDS011;15981;43.292;-2.888;2022-07-23T11:15:13;3.13;;;2.40;;
28848;SDS011;15981;43.292;-2.888;2022-07-23T11:17:39;2.42;;;1.85;;
28848;SDS011;15981;43.292;-2.888;2022-07-23T11:20:23;2.80;;;2.03;;
28848;SDS011;15981;43.292;-2.888;2022-07-23T11:22:50;3.25;;;2.10;;
28848;SDS011;15981;43.292;-2.888;2022-07-23T11:27:48;3.58;;;1.75;;
28848;SDS011;15981;43.292;-2.888;2022-07-23T11:35:35;2.67;;;1.90;;
28848;SDS011;15981;43.292;-2.888;2022-07-23T11:38:08;5.25;;;2.10;;
28848;SDS011;15981;43.292;-2.888;2022-07-23T11:40:37;2.25;;;1.80;;
28848;SDS011;15981;43.292;-2.888;2022-07-23T11:43:12;4.05;;;1.88;;
28848;SDS011;15981;43.292;-2.888;2022-07-23T11:45:38;3.65;;;1.80;;
28848;SDS011;15981;43.292;-2.888;2022-07-23T11:48:06;2.83;;;1.75;;
28848;SDS011;15981;43.292;-2.888;2022-07-23T11:50:32;2.90;;;2.00;;
28848;SDS011;15981;43.292;-2.888;2022-07-23T11:52:57;3.05;;;2.00;;
28848;SDS011;15981;43.292;-2.888;2022-07-23T11:55:23;3.13;;;1.77;;
28848;SDS011;15981;43.292;-2.888;2022-07-23T11:57:50;2.80;;;1.70;;
28848;SDS011;15981;43.292;-2.888;2022-07-23T12:00:18;4.60;;;2.05;;
28848;SDS011;15981;43.292;-2.888;2022-07-23T12:02:45;2.28;;;1.83;;
28848;SDS011;15981;43.292;-2.888;2022-07-23T12:05:12;3.42;;;1.90;;
28848;SDS011;15981;43.292;-2.888;2022-07-23T12:07:39;2.95;;;1.73;;
28848;SDS011;15981;43.292;-2.888;2022-07-23T12:10:09;2.00;;;1.83;;
28848;SDS011;15981;43.292;-2.888;2022-07-23T12:12:37;2.33;;;1.58;;
28848;SDS011;15981;43.292;-2.888;2022-07-23T12:15:03;4.72;;;1.98;;
28848;SDS011;15981;43.292;-2.888;2022-07-23T12:17:30;3.50;;;1.90;;
28848;SDS011;15981;43.292;-2.888;2022-07-23T12:19:57;3.33;;;1.70;;
28848;SDS011;15981;43.292;-2.888;2022-07-23T12:22:24;2.38;;;2.00;;
28848;SDS011;15981;43.292;-2.888;2022-07-23T12:24:54;4.72;;;1.92;;
28848;SDS011;15981;43.292;-2.888;2022-07-23T12:27:20;4.53;;;1.52;;
28848;SDS011;15981;43.292;-2.888;2022-07-23T12:29:46;1.83;;;1.70;;
28848;SDS011;15981;43.292;-2.888;2022-07-23T12:32:25;3.83;;;1.90;;
28848;SDS011;15981;43.292;-2.888;2022-07-23T12:35:13;2.83;;;1.70;;
28848;SDS011;15981;43.292;-2.888;2022-07-23T12:37:38;3.28;;;1.90;;
28848;SDS011;15981;43.292;-2.888;2022-07-23T12:42:49;5.18;;;2.10;;
28848;SDS011;15981;43.292;-2.888;2022-07-23T12:45:15;2.90;;;1.70;;
28848;SDS011;15981;43.292;-2.888;2022-07-23T12:50:52;4.03;;;1.70;;
28848;SDS011;15981;43.292;-2.888;2022-07-23T12:53:22;3.33;;;1.70;;
28848;SDS011;15981;43.292;-2.888;2022-07-23T12:55:49;1.88;;;1.60;;
28848;SDS011;15981;43.292;-2.888;2022-07-23T12:58:16;2.78;;;1.80;;
28848;SDS011;15981;43.292;-2.888;2022-07-23T13:01:15;3.17;;;1.70;;
28848;SDS011;15981;43.292;-2.888;2022-07-23T13:03:40;2.63;;;1.90;;
28848;SDS011;15981;43.292;-2.888;2022-07-23T13:06:10;5.03;;;2.08;;
28848;SDS011;15981;43.292;-2.888;2022-07-23T13:08:37;2.35;;;1.65;;
28848;SDS011;15981;43.292;-2.888;2022-07-23T13:11:04;3.05;;;1.63;;
28848;SDS011;15981;43.292;-2.888;2022-07-23T13:13:30;2.63;;;1.80;;
28848;SDS011;15981;43.292;-2.888;2022-07-23T13:15:57;2.60;;;1.60;;
28848;SDS011;15981;43.292;-2.888;2022-07-23T13:18:23;2.28;;;1.58;;
28848;SDS011;15981;43.292;-2.888;2022-07-23T13:20:49;2.40;;;1.40;;
28848;SDS011;15981;43.292;-2.888;2022-07-23T13:23:15;4.03;;;1.80;;
28848;SDS011;15981;43.292;-2.888;2022-07-23T13:25:41;3.47;;;2.00;;
28848;SDS011;15981;43.292;-2.888;2022-07-23T13:28:07;2.05;;;1.60;;
28848;SDS011;15981;43.292;-2.888;2022-07-23T13:30:33;3.22;;;1.75;;
28848;SDS011;15981;43.292;-2.888;2022-07-23T13:32:59;2.33;;;1.67;;
28848;SDS011;15981;43.292;-2.888;2022-07-23T13:35:25;1.85;;;1.65;;
28848;SDS011;15981;43.292;-2.888;2022-07-23T13:37:50;2.00;;;1.50;;
28848;SDS011;15981;43.292;-2.888;2022-07-23T13:40:16;3.33;;;2.10;;
28848;SDS011;15981;43.292;-2.888;2022-07-23T13:42:42;4.57;;;2.08;;
28848;SDS011;15981;43.292;-2.888;2022-07-23T13:45:08;3.10;;;1.88;;
28848;SDS011;15981;43.292;-2.888;2022-07-23T13:47:34;2.90;;;1.45;;
28848;SDS011;15981;43.292;-2.888;2022-07-23T13:50:00;5.25;;;1.75;;
28848;SDS011;15981;43.292;-2.888;2022-07-23T13:52:25;3.35;;;1.98;;
28848;SDS011;15981;43.292;-2.888;2022-07-23T13:54:51;5.22;;;1.73;;
28848;SDS011;15981;43.292;-2.888;2022-07-23T13:57:17;3.15;;;1.50;;
28848;SDS011;15981;43.292;-2.888;2022-07-23T13:59:43;2.80;;;1.65;;
28848;SDS011;15981;43.292;-2.888;2022-07-23T14:02:08;1.60;;;1.42;;
28848;SDS011;15981;43.292;-2.888;2022-07-23T14:04:34;2.47;;;1.70;;
28848;SDS011;15981;43.292;-2.888;2022-07-23T14:07:00;2.97;;;1.70;;
28848;SDS011;15981;43.292;-2.888;2022-07-23T14:09:26;1.90;;;1.50;;
28848;SDS011;15981;43.292;-2.888;2022-07-23T14:11:52;1.55;;;1.20;;
28848;SDS011;15981;43.292;-2.888;2022-07-23T14:14:18;3.03;;;1.73;;
28848;SDS011;15981;43.292;-2.888;2022-07-23T14:16:44;2.03;;;1.40;;
28848;SDS011;15981;43.292;-2.888;2022-07-23T14:19:10;2.75;;;1.70;;
28848;SDS011;15981;43.292;-2.888;2022-07-23T14:21:36;2.05;;;1.42;;
28848;SDS011;15981;43.292;-2.888;2022-07-23T14:24:02;3.60;;;1.77;;
28848;SDS011;15981;43.292;-2.888;2022-07-23T14:26:28;2.20;;;1.33;;
28848;SDS011;15981;43.292;-2.888;2022-07-23T14:28:53;2.13;;;1.33;;
28848;SDS011;15981;43.292;-2.888;2022-07-23T14:31:19;4.25;;;1.83;;
28848;SDS011;15981;43.292;-2.888;2022-07-23T14:33:45;4.40;;;1.65;;
28848;SDS011;15981;43.292;-2.888;2022-07-23T14:36:11;2.97;;;1.30;;
28848;SDS011;15981;43.292;-2.888;2022-07-23T14:38:36;3.63;;;1.50;;
28848;SDS011;15981;43.292;-2.888;2022-07-23T14:41:02;2.55;;;1.60;;
28848;SDS011;15981;43.292;-2.888;2022-07-23T14:43:32;2.28;;;1.38;;
28848;SDS011;15981;43.292;-2.888;2022-07-23T14:45:58;3.70;;;1.85;;
28848;SDS011;15981;43.292;-2.888;2022-07-23T14:48:24;1.50;;;1.30;;
28848;SDS011;15981;43.292;-2.888;2022-07-23T14:50:49;3.28;;;1.60;;
28848;SDS011;15981;43.292;-2.888;2022-07-23T14:53:15;2.28;;;1.50;;
28848;SDS011;15981;43.292;-2.888;2022-07-23T14:55:41;4.13;;;1.67;;
28848;SDS011;15981;43.292;-2.888;2022-07-23T14:58:07;2.03;;;1.27;;
28848;SDS011;15981;43.292;-2.888;2022-07-23T15:00:33;1.70;;;1.33;;
28848;SDS011;15981;43.292;-2.888;2022-07-23T15:02:59;2.42;;;1.50;;
28848;SDS011;15981;43.292;-2.888;2022-07-23T15:05:24;2.40;;;1.70;;
28848;SDS011;15981;43.292;-2.888;2022-07-23T15:07:50;2.47;;;1.80;;
28848;SDS011;15981;43.292;-2.888;2022-07-23T15:10:16;3.33;;;2.47;;
28848;SDS011;15981;43.292;-2.888;2022-07-23T15:12:42;4.30;;;1.60;;
28848;SDS011;15981;43.292;-2.888;2022-07-23T15:15:07;2.25;;;1.60;;
28848;SDS011;15981;43.292;-2.888;2022-07-23T15:17:33;2.65;;;1.60;;
28848;SDS011;15981;43.292;-2.888;2022-07-23T15:19:59;3.55;;;1.48;;
28848;SDS011;15981;43.292;-2.888;2022-07-23T15:22:25;2.72;;;1.50;;
28848;SDS011;15981;43.292;-2.888;2022-07-23T15:24:50;2.03;;;1.48;;
28848;SDS011;15981;43.292;-2.888;2022-07-23T15:27:16;2.22;;;1.70;;
28848;SDS011;15981;43.292;-2.888;2022-07-23T15:29:43;3.15;;;1.75;;
28848;SDS011;15981;43.292;-2.888;2022-07-23T15:32:09;2.65;;;1.70;;
28848;SDS011;15981;43.292;-2.888;2022-07-23T15:34:36;1.60;;;1.48;;
28848;SDS011;15981;43.292;-2.888;2022-07-23T15:37:02;4.22;;;1.88;;
28848;SDS011;15981;43.292;-2.888;2022-07-23T15:39:27;2.83;;;1.88;;
28848;SDS011;15981;43.292;-2.888;2022-07-23T15:41:53;3.83;;;1.50;;
28848;SDS011;15981;43.292;-2.888;2022-07-23T15:44:19;3.70;;;1.98;;
28848;SDS011;15981;43.292;-2.888;2022-07-23T15:46:45;2.65;;;1.60;;
28848;SDS011;15981;43.292;-2.888;2022-07-23T15:49:11;2.55;;;1.80;;
28848;SDS011;15981;43.292;-2.888;2022-07-23T15:51:38;3.85;;;2.67;;
28848;SDS011;15981;43.292;-2.888;2022-07-23T15:54:04;2.67;;;1.70;;
28848;SDS011;15981;43.292;-2.888;2022-07-23T15:56:30;3.03;;;1.67;;
28848;SDS011;15981;43.292;-2.888;2022-07-23T15:58:55;4.55;;;1.70;;
28848;SDS011;15981;43.292;-2.888;2022-07-23T16:01:21;1.70;;;1.45;;
28848;SDS011;15981;43.292;-2.888;2022-07-23T16:03:47;4.43;;;1.60;;
28848;SDS011;15981;43.292;-2.888;2022-07-23T16:06:13;4.47;;;1.80;;
28848;SDS011;15981;43.292;-2.888;2022-07-23T16:08:39;5.15;;;1.95;;
28848;SDS011;15981;43.292;-2.888;2022-07-23T16:11:05;3.30;;;1.55;;
28848;SDS011;15981;43.292;-2.888;2022-07-23T16:13:30;3.90;;;2.00;;
28848;SDS011;15981;43.292;-2.888;2022-07-23T16:15:56;3.67;;;2.38;;
28848;SDS011;15981;43.292;-2.888;2022-07-23T16:18:23;3.17;;;1.83;;
28848;SDS011;15981;43.292;-2.888;2022-07-23T16:20:51;3.97;;;1.73;;
28848;SDS011;15981;43.292;-2.888;2022-07-23T16:23:17;2.53;;;1.83;;
28848;SDS011;15981;43.292;-2.888;2022-07-23T16:25:43;3.25;;;1.90;;
28848;SDS011;15981;43.292;-2.888;2022-07-23T16:28:09;2.22;;;1.70;;
28848;SDS011;15981;43.292;-2.888;2022-07-23T16:30:34;5.43;;;1.75;;
28848;SDS011;15981;43.292;-2.888;2022-07-23T16:33:01;3.55;;;2.00;;
28848;SDS011;15981;43.292;-2.888;2022-07-23T16:35:27;1.98;;;1.73;;
28848;SDS011;15981;43.292;-2.888;2022-07-23T16:37:53;1.70;;;1.60;;
28848;SDS011;15981;43.292;-2.888;2022-07-23T16:40:19;3.10;;;1.52;;
28848;SDS011;15981;43.292;-2.888;2022-07-23T16:42:45;2.17;;;1.85;;
28848;SDS011;15981;43.292;-2.888;2022-07-23T16:45:11;5.15;;;1.75;;
28848;SDS011;15981;43.292;-2.888;2022-07-23T16:47:37;4.45;;;1.75;;
28848;SDS011;15981;43.292;-2.888;2022-07-23T16:50:03;4.35;;;1.88;;
28848;SDS011;15981;43.292;-2.888;2022-07-23T16:52:29;3.25;;;1.77;;
28848;SDS011;15981;43.292;-2.888;2022-07-23T16:54:55;2.28;;;1.58;;
28848;SDS011;15981;43.292;-2.888;2022-07-23T16:57:21;4.53;;;1.90;;
28848;SDS011;15981;43.292;-2.888;2022-07-23T16:59:47;2.50;;;1.40;;
28848;SDS011;15981;43.292;-2.888;2022-07-23T17:02:13;4.28;;;1.52;;
28848;SDS011;15981;43.292;-2.888;2022-07-23T17:04:38;2.22;;;1.65;;
28848;SDS011;15981;43.292;-2.888;2022-07-23T17:07:04;2.17;;;1.52;;